sensor_id;sensor_type;location;lat;lon;timestamp;pressure;altitude;pressure_sealevel;temperature;humidity
86083;BME280;76693;50.220;14.298;2024-03-17T00:01:49;100045.75;;;1.55;87.29
86083;BME280;76693;50.220;14.298;2024-03-17T00:04:15;100039.19;;;1.47;86.46
86083;BME280;76693;50.220;14.298;2024-03-17T00:06:40;100036.94;;;1.40;86.11
86083;BME280;76693;50.220;14.298;2024-03-17T00:09:05;100037.44;;;1.36;86.60
86083;BME280;76693;50.220;14.298;2024-03-17T00:11:35;100044.19;;;1.25;87.14
86083;BME280;76693;50.220;14.298;2024-03-17T00:14:01;100036.19;;;1.31;87.37
86083;BME280;76693;50.220;14.298;2024-03-17T00:16:26;100037.81;;;1.30;87.33
86083;BME280;76693;50.220;14.298;2024-03-17T00:18:52;100035.06;;;1.17;87.79
86083;BME280;76693;50.220;14.298;2024-03-17T00:21:17;100033.44;;;1.07;87.58
86083;BME280;76693;50.220;14.298;2024-03-17T00:23:45;100042.34;;;1.02;87.37
86083;BME280;76693;50.220;14.298;2024-03-17T00:26:10;100041.84;;;1.06;87.08
86083;BME280;76693;50.220;14.298;2024-03-17T00:28:35;100043.00;;;0.89;87.34
86083;BME280;76693;50.220;14.298;2024-03-17T00:31:03;100053.25;;;1.01;87.37
86083;BME280;76693;50.220;14.298;2024-03-17T00:33:28;100045.13;;;1.05;88.00
86083;BME280;76693;50.220;14.298;2024-03-17T00:35:54;100042.31;;;1.12;87.78
86083;BME280;76693;50.220;14.298;2024-03-17T00:38:19;100049.44;;;0.96;87.64
86083;BME280;76693;50.220;14.298;2024-03-17T00:40:44;100047.41;;;0.92;87.71
86083;BME280;76693;50.220;14.298;2024-03-17T00:43:10;100053.50;;;1.04;88.36
86083;BME280;76693;50.220;14.298;2024-03-17T00:45:36;100039.00;;;1.13;88.15
86083;BME280;76693;50.220;14.298;2024-03-17T00:48:02;100038.28;;;0.94;88.13
86083;BME280;76693;50.220;14.298;2024-03-17T00:50:28;100037.00;;;0.99;88.46
86083;BME280;76693;50.220;14.298;2024-03-17T00:52:53;100039.56;;;0.99;88.67
86083;BME280;76693;50.220;14.298;2024-03-17T00:55:18;100044.16;;;0.93;88.34
86083;BME280;76693;50.220;14.298;2024-03-17T00:57:44;100046.91;;;1.06;88.04
86083;BME280;76693;50.220;14.298;2024-03-17T01:00:09;100045.91;;;0.94;87.77
86083;BME280;76693;50.220;14.298;2024-03-17T01:02:37;100045.78;;;0.82;88.19
86083;BME280;76693;50.220;14.298;2024-03-17T01:05:02;100048.22;;;0.81;88.34
86083;BME280;76693;50.220;14.298;2024-03-17T01:07:30;100044.88;;;1.02;87.73
86083;BME280;76693;50.220;14.298;2024-03-17T01:09:56;100045.91;;;0.84;86.98
86083;BME280;76693;50.220;14.298;2024-03-17T01:12:21;100046.66;;;0.83;87.49
86083;BME280;76693;50.220;14.298;2024-03-17T01:14:47;100049.09;;;0.81;87.65
86083;BME280;76693;50.220;14.298;2024-03-17T01:17:12;100045.91;;;0.73;87.41
86083;BME280;76693;50.220;14.298;2024-03-17T01:19:37;100041.84;;;0.65;87.21
86083;BME280;76693;50.220;14.298;2024-03-17T01:22:03;100040.09;;;0.85;87.64
86083;BME280;76693;50.220;14.298;2024-03-17T01:24:28;100033.34;;;0.75;87.80
86083;BME280;76693;50.220;14.298;2024-03-17T01:26:59;100036.78;;;0.86;85.69
86083;BME280;76693;50.220;14.298;2024-03-17T01:29:25;100028.66;;;0.90;87.21
86083;BME280;76693;50.220;14.298;2024-03-17T01:31:51;100037.28;;;0.82;86.49
86083;BME280;76693;50.220;14.298;2024-03-17T01:34:20;100036.03;;;0.77;86.06
86083;BME280;76693;50.220;14.298;2024-03-17T01:36:46;100040.97;;;0.65;86.13
86083;BME280;76693;50.220;14.298;2024-03-17T01:39:11;100046.16;;;0.46;88.69
86083;BME280;76693;50.220;14.298;2024-03-17T01:41:36;100046.44;;;0.59;88.62
86083;BME280;76693;50.220;14.298;2024-03-17T01:44:02;100037.03;;;0.68;88.16
86083;BME280;76693;50.220;14.298;2024-03-17T01:46:27;100035.25;;;0.67;86.77
86083;BME280;76693;50.220;14.298;2024-03-17T01:48:53;100026.88;;;0.48;87.58
86083;BME280;76693;50.220;14.298;2024-03-17T01:51:19;100034.00;;;0.52;88.24
86083;BME280;76693;50.220;14.298;2024-03-17T01:53:45;100030.19;;;0.47;87.61
86083;BME280;76693;50.220;14.298;2024-03-17T01:56:11;100039.81;;;0.41;87.07
86083;BME280;76693;50.220;14.298;2024-03-17T01:58:37;100037.81;;;0.47;87.54
86083;BME280;76693;50.220;14.298;2024-03-17T02:01:03;100041.34;;;0.39;88.43
86083;BME280;76693;50.220;14.298;2024-03-17T02:03:29;100040.41;;;0.18;88.47
86083;BME280;76693;50.220;14.298;2024-03-17T02:05:55;100028.63;;;0.29;88.61
86083;BME280;76693;50.220;14.298;2024-03-17T02:08:20;100035.19;;;0.16;87.84
86083;BME280;76693;50.220;14.298;2024-03-17T02:10:52;100036.50;;;0.21;88.23
86083;BME280;76693;50.220;14.298;2024-03-17T02:13:18;100037.72;;;-0.04;88.16
86083;BME280;76693;50.220;14.298;2024-03-17T02:15:44;100033.78;;;-0.30;88.47
86083;BME280;76693;50.220;14.298;2024-03-17T02:18:09;100035.84;;;-0.26;89.58
86083;BME280;76693;50.220;14.298;2024-03-17T02:20:34;100036.91;;;-0.13;88.92
86083;BME280;76693;50.220;14.298;2024-03-17T02:23:18;100035.47;;;0.19;87.96
86083;BME280;76693;50.220;14.298;2024-03-17T02:25:44;100038.28;;;0.22;87.50
86083;BME280;76693;50.220;14.298;2024-03-17T02:28:11;100040.28;;;0.16;88.57
86083;BME280;76693;50.220;14.298;2024-03-17T02:30:36;100040.00;;;0.03;87.91
86083;BME280;76693;50.220;14.298;2024-03-17T02:33:02;100043.50;;;-0.15;88.39
86083;BME280;76693;50.220;14.298;2024-03-17T02:35:28;100038.94;;;-0.09;87.24
86083;BME280;76693;50.220;14.298;2024-03-17T02:37:53;100038.16;;;-0.18;88.27
86083;BME280;76693;50.220;14.298;2024-03-17T02:40:18;100046.34;;;-0.31;88.96
86083;BME280;76693;50.220;14.298;2024-03-17T02:42:44;100050.72;;;-0.49;89.18
86083;BME280;76693;50.220;14.298;2024-03-17T02:45:13;100039.31;;;-0.44;88.65
86083;BME280;76693;50.220;14.298;2024-03-17T02:47:38;100044.22;;;-0.27;88.43
86083;BME280;76693;50.220;14.298;2024-03-17T02:50:05;100047.97;;;-0.42;88.18
86083;BME280;76693;50.220;14.298;2024-03-17T02:52:30;100046.16;;;-0.43;89.47
86083;BME280;76693;50.220;14.298;2024-03-17T02:54:56;100049.09;;;-0.38;88.84
86083;BME280;76693;50.220;14.298;2024-03-17T02:57:23;100053.28;;;-0.39;88.43
86083;BME280;76693;50.220;14.298;2024-03-17T02:59:54;100048.78;;;-0.52;87.88
86083;BME280;76693;50.220;14.298;2024-03-17T03:02:20;100049.47;;;-0.44;88.28
86083;BME280;76693;50.220;14.298;2024-03-17T03:04:45;100043.28;;;-0.66;87.39
86083;BME280;76693;50.220;14.298;2024-03-17T03:07:10;100037.75;;;-0.52;88.30
86083;BME280;76693;50.220;14.298;2024-03-17T03:09:36;100049.91;;;-0.58;88.30
86083;BME280;76693;50.220;14.298;2024-03-17T03:12:01;100038.88;;;-0.59;87.55
86083;BME280;76693;50.220;14.298;2024-03-17T03:14:28;100040.03;;;-0.55;88.15
86083;BME280;76693;50.220;14.298;2024-03-17T03:16:54;100035.72;;;-0.56;88.11
86083;BME280;76693;50.220;14.298;2024-03-17T03:19:19;100041.59;;;-0.47;87.98
86083;BME280;76693;50.220;14.298;2024-03-17T03:21:45;100038.25;;;-0.56;88.28
86083;BME280;76693;50.220;14.298;2024-03-17T03:24:11;100035.19;;;-0.62;88.22
86083;BME280;76693;50.220;14.298;2024-03-17T03:26:37;100041.28;;;-0.60;88.19
86083;BME280;76693;50.220;14.298;2024-03-17T03:29:03;100046.03;;;-0.73;88.09
86083;BME280;76693;50.220;14.298;2024-03-17T03:31:31;100053.69;;;-0.82;88.78
86083;BME280;76693;50.220;14.298;2024-03-17T03:33:56;100038.22;;;-0.66;88.46
86083;BME280;76693;50.220;14.298;2024-03-17T03:36:22;100040.19;;;-0.72;89.38
86083;BME280;76693;50.220;14.298;2024-03-17T03:38:47;100037.00;;;-0.51;89.39
86083;BME280;76693;50.220;14.298;2024-03-17T03:41:14;100044.22;;;-0.56;89.24
86083;BME280;76693;50.220;14.298;2024-03-17T03:43:40;100038.75;;;-0.60;88.72
86083;BME280;76693;50.220;14.298;2024-03-17T03:46:07;100039.59;;;-0.70;89.22
86083;BME280;76693;50.220;14.298;2024-03-17T03:48:32;100029.31;;;-0.71;89.02
86083;BME280;76693;50.220;14.298;2024-03-17T03:51:02;100038.34;;;-0.65;89.27
86083;BME280;76693;50.220;14.298;2024-03-17T03:53:28;100038.69;;;-0.70;88.76
86083;BME280;76693;50.220;14.298;2024-03-17T03:55:53;100035.41;;;-0.69;90.13
86083;BME280;76693;50.220;14.298;2024-03-17T03:58:18;100037.44;;;-0.65;89.11
86083;BME280;76693;50.220;14.298;2024-03-17T04:00:44;100031.13;;;-0.60;88.51
86083;BME280;76693;50.220;14.298;2024-03-17T04:03:09;100028.69;;;-0.69;88.69
86083;BME280;76693;50.220;14.298;2024-03-17T04:05:34;100032.38;;;-0.65;88.91
86083;BME280;76693;50.220;14.298;2024-03-17T04:08:00;100029.25;;;-0.82;89.27
86083;BME280;76693;50.220;14.298;2024-03-17T04:10:25;100026.50;;;-0.74;89.34
86083;BME280;76693;50.220;14.298;2024-03-17T04:12:51;100028.28;;;-0.73;89.30
86083;BME280;76693;50.220;14.298;2024-03-17T04:15:17;100036.94;;;-0.71;88.90
86083;BME280;76693;50.220;14.298;2024-03-17T04:17:43;100035.13;;;-0.72;90.22
86083;BME280;76693;50.220;14.298;2024-03-17T04:20:09;100033.53;;;-0.62;90.12
86083;BME280;76693;50.220;14.298;2024-03-17T04:22:35;100035.44;;;-0.59;89.77
86083;BME280;76693;50.220;14.298;2024-03-17T04:25:01;100031.69;;;-0.54;89.14
86083;BME280;76693;50.220;14.298;2024-03-17T04:27:29;100040.75;;;-0.37;89.20
86083;BME280;76693;50.220;14.298;2024-03-17T04:29:56;100046.03;;;-0.44;88.10
86083;BME280;76693;50.220;14.298;2024-03-17T04:32:22;100036.03;;;-0.43;88.84
86083;BME280;76693;50.220;14.298;2024-03-17T04:34:47;100037.09;;;-0.31;88.91
86083;BME280;76693;50.220;14.298;2024-03-17T04:37:13;100039.81;;;-0.09;90.03
86083;BME280;76693;50.220;14.298;2024-03-17T04:39:42;100047.47;;;-0.38;88.66
86083;BME280;76693;50.220;14.298;2024-03-17T04:42:13;100040.38;;;-0.42;88.74
86083;BME280;76693;50.220;14.298;2024-03-17T04:44:45;100045.38;;;-0.13;88.66
86083;BME280;76693;50.220;14.298;2024-03-17T04:47:11;100045.66;;;-0.10;88.21
86083;BME280;76693;50.220;14.298;2024-03-17T04:49:37;100045.97;;;-0.26;87.55
86083;BME280;76693;50.220;14.298;2024-03-17T04:52:03;100046.94;;;-0.44;88.82
86083;BME280;76693;50.220;14.298;2024-03-17T04:54:31;100041.47;;;-0.48;89.48
86083;BME280;76693;50.220;14.298;2024-03-17T04:56:56;100050.44;;;-0.52;89.08
86083;BME280;76693;50.220;14.298;2024-03-17T04:59:21;100048.38;;;-0.56;89.92
86083;BME280;76693;50.220;14.298;2024-03-17T05:01:47;100053.72;;;-0.53;89.21
86083;BME280;76693;50.220;14.298;2024-03-17T05:04:13;100050.06;;;-0.76;89.94
86083;BME280;76693;50.220;14.298;2024-03-17T05:06:39;100045.53;;;-0.69;88.85
86083;BME280;76693;50.220;14.298;2024-03-17T05:09:07;100052.03;;;-0.82;89.50
86083;BME280;76693;50.220;14.298;2024-03-17T05:11:32;100063.47;;;-0.77;88.50
86083;BME280;76693;50.220;14.298;2024-03-17T05:13:58;100055.63;;;-0.80;88.52
86083;BME280;76693;50.220;14.298;2024-03-17T05:16:24;100061.41;;;-0.81;88.85
86083;BME280;76693;50.220;14.298;2024-03-17T05:18:50;100061.16;;;-0.84;88.12
86083;BME280;76693;50.220;14.298;2024-03-17T05:21:15;100057.19;;;-0.90;88.70
86083;BME280;76693;50.220;14.298;2024-03-17T05:23:41;100061.81;;;-0.57;88.75
86083;BME280;76693;50.220;14.298;2024-03-17T05:26:06;100064.31;;;-0.67;87.68
86083;BME280;76693;50.220;14.298;2024-03-17T05:28:32;100066.09;;;-0.66;87.45
86083;BME280;76693;50.220;14.298;2024-03-17T05:30:58;100069.41;;;-0.57;87.72
86083;BME280;76693;50.220;14.298;2024-03-17T05:33:25;100069.63;;;-0.64;87.64
86083;BME280;76693;50.220;14.298;2024-03-17T05:35:55;100074.06;;;-0.81;87.73
86083;BME280;76693;50.220;14.298;2024-03-17T05:38:27;100082.03;;;-0.67;87.37
86083;BME280;76693;50.220;14.298;2024-03-17T05:40:56;100084.13;;;-0.53;87.52
86083;BME280;76693;50.220;14.298;2024-03-17T05:43:23;100084.66;;;-0.47;87.57
86083;BME280;76693;50.220;14.298;2024-03-17T05:45:57;100086.38;;;-0.37;87.37
86083;BME280;76693;50.220;14.298;2024-03-17T05:48:23;100102.75;;;-0.34;87.18
86083;BME280;76693;50.220;14.298;2024-03-17T05:50:49;100102.31;;;-0.09;87.18
86083;BME280;76693;50.220;14.298;2024-03-17T05:53:20;100098.78;;;-0.11;85.85
86083;BME280;76693;50.220;14.298;2024-03-17T05:55:47;100093.63;;;0.08;86.70
86083;BME280;76693;50.220;14.298;2024-03-17T05:58:12;100102.81;;;0.16;85.85
86083;BME280;76693;50.220;14.298;2024-03-17T06:00:38;100107.78;;;0.24;84.76
86083;BME280;76693;50.220;14.298;2024-03-17T06:03:05;100112.34;;;0.29;85.22
86083;BME280;76693;50.220;14.298;2024-03-17T06:05:34;100107.59;;;0.52;84.56
86083;BME280;76693;50.220;14.298;2024-03-17T06:08:04;100109.63;;;0.56;84.63
86083;BME280;76693;50.220;14.298;2024-03-17T06:10:30;100111.94;;;0.73;84.80
86083;BME280;76693;50.220;14.298;2024-03-17T06:12:57;100113.22;;;0.89;84.96
86083;BME280;76693;50.220;14.298;2024-03-17T06:15:23;100113.31;;;1.21;84.21
86083;BME280;76693;50.220;14.298;2024-03-17T06:17:52;100113.84;;;1.27;82.72
86083;BME280;76693;50.220;14.298;2024-03-17T06:20:21;100114.69;;;1.38;83.55
86083;BME280;76693;50.220;14.298;2024-03-17T06:22:48;100119.25;;;1.42;83.47
86083;BME280;76693;50.220;14.298;2024-03-17T06:25:14;100114.88;;;1.71;83.26
86083;BME280;76693;50.220;14.298;2024-03-17T06:27:39;100118.78;;;2.10;81.34
86083;BME280;76693;50.220;14.298;2024-03-17T06:30:05;100108.75;;;2.12;80.69
86083;BME280;76693;50.220;14.298;2024-03-17T06:32:34;100110.53;;;2.13;82.29
86083;BME280;76693;50.220;14.298;2024-03-17T06:35:02;100117.28;;;2.12;80.94
86083;BME280;76693;50.220;14.298;2024-03-17T06:37:28;100114.38;;;2.30;80.33
86083;BME280;76693;50.220;14.298;2024-03-17T06:39:53;100106.34;;;2.57;80.00
86083;BME280;76693;50.220;14.298;2024-03-17T06:42:19;100117.84;;;2.86;79.31
86083;BME280;76693;50.220;14.298;2024-03-17T06:44:44;100118.63;;;2.85;79.08
86083;BME280;76693;50.220;14.298;2024-03-17T06:47:10;100111.25;;;2.99;78.15
86083;BME280;76693;50.220;14.298;2024-03-17T06:49:35;100121.63;;;3.24;77.78
86083;BME280;76693;50.220;14.298;2024-03-17T06:52:01;100123.41;;;3.37;77.53
86083;BME280;76693;50.220;14.298;2024-03-17T06:54:26;100127.63;;;3.60;76.42
86083;BME280;76693;50.220;14.298;2024-03-17T06:56:51;100128.75;;;3.75;75.57
86083;BME280;76693;50.220;14.298;2024-03-17T06:59:17;100128.50;;;3.96;77.56
86083;BME280;76693;50.220;14.298;2024-03-17T07:01:42;100135.59;;;4.00;75.10
86083;BME280;76693;50.220;14.298;2024-03-17T07:04:09;100147.00;;;4.29;75.63
86083;BME280;76693;50.220;14.298;2024-03-17T07:06:35;100142.81;;;4.54;75.47
86083;BME280;76693;50.220;14.298;2024-03-17T07:09:01;100137.69;;;4.66;72.86
86083;BME280;76693;50.220;14.298;2024-03-17T07:11:26;100141.38;;;4.83;72.53
86083;BME280;76693;50.220;14.298;2024-03-17T07:13:52;100142.84;;;5.04;72.87
86083;BME280;76693;50.220;14.298;2024-03-17T07:16:17;100149.59;;;5.15;71.76
86083;BME280;76693;50.220;14.298;2024-03-17T07:18:43;100151.59;;;5.33;73.12
86083;BME280;76693;50.220;14.298;2024-03-17T07:21:09;100148.16;;;5.45;70.61
86083;BME280;76693;50.220;14.298;2024-03-17T07:23:36;100148.03;;;5.69;70.30
86083;BME280;76693;50.220;14.298;2024-03-17T07:26:02;100146.38;;;5.96;70.71
86083;BME280;76693;50.220;14.298;2024-03-17T07:28:30;100146.56;;;5.86;69.49
86083;BME280;76693;50.220;14.298;2024-03-17T07:30:59;100147.97;;;6.07;69.66
86083;BME280;76693;50.220;14.298;2024-03-17T07:33:28;100146.94;;;6.18;69.01
86083;BME280;76693;50.220;14.298;2024-03-17T07:35:55;100150.88;;;6.27;69.52
86083;BME280;76693;50.220;14.298;2024-03-17T07:38:23;100147.28;;;6.51;68.06
86083;BME280;76693;50.220;14.298;2024-03-17T07:41:02;100141.56;;;6.55;67.63
86083;BME280;76693;50.220;14.298;2024-03-17T07:43:28;100149.25;;;6.55;67.17
86083;BME280;76693;50.220;14.298;2024-03-17T07:45:59;100148.56;;;6.58;65.33
86083;BME280;76693;50.220;14.298;2024-03-17T07:48:24;100151.75;;;6.68;65.94
86083;BME280;76693;50.220;14.298;2024-03-17T07:50:57;100153.59;;;6.84;65.60
86083;BME280;76693;50.220;14.298;2024-03-17T07:53:23;100144.97;;;6.97;66.28
86083;BME280;76693;50.220;14.298;2024-03-17T07:55:57;100149.25;;;7.26;64.96
86083;BME280;76693;50.220;14.298;2024-03-17T07:58:23;100145.97;;;7.14;64.77
86083;BME280;76693;50.220;14.298;2024-03-17T08:00:51;100150.81;;;7.09;63.45
86083;BME280;76693;50.220;14.298;2024-03-17T08:03:16;100139.81;;;6.97;64.11
86083;BME280;76693;50.220;14.298;2024-03-17T08:05:41;100146.53;;;7.38;62.78
86083;BME280;76693;50.220;14.298;2024-03-17T08:08:07;100145.44;;;7.19;62.01
86083;BME280;76693;50.220;14.298;2024-03-17T08:10:32;100153.25;;;7.50;63.27
86083;BME280;76693;50.220;14.298;2024-03-17T08:12:58;100146.06;;;7.45;62.24
86083;BME280;76693;50.220;14.298;2024-03-17T08:15:23;100142.78;;;7.33;60.87
86083;BME280;76693;50.220;14.298;2024-03-17T08:17:48;100144.84;;;7.68;62.17
86083;BME280;76693;50.220;14.298;2024-03-17T08:20:14;100136.16;;;7.81;61.87
86083;BME280;76693;50.220;14.298;2024-03-17T08:22:39;100134.47;;;7.66;60.44
86083;BME280;76693;50.220;14.298;2024-03-17T08:25:05;100141.44;;;7.98;60.52
86083;BME280;76693;50.220;14.298;2024-03-17T08:27:31;100137.41;;;7.72;60.56
86083;BME280;76693;50.220;14.298;2024-03-17T08:29:56;100139.69;;;7.53;60.27
86083;BME280;76693;50.220;14.298;2024-03-17T08:32:22;100134.47;;;7.66;60.13
86083;BME280;76693;50.220;14.298;2024-03-17T08:34:47;100134.72;;;7.86;60.60
86083;BME280;76693;50.220;14.298;2024-03-17T08:37:13;100142.41;;;8.32;60.91
86083;BME280;76693;50.220;14.298;2024-03-17T08:39:38;100129.78;;;7.89;60.84
86083;BME280;76693;50.220;14.298;2024-03-17T08:42:04;100134.44;;;7.96;60.00
86083;BME280;76693;50.220;14.298;2024-03-17T08:44:29;100146.56;;;8.30;58.85
86083;BME280;76693;50.220;14.298;2024-03-17T08:46:55;100135.31;;;8.42;58.86
86083;BME280;76693;50.220;14.298;2024-03-17T08:49:20;100132.03;;;9.79;55.87
86083;BME280;76693;50.220;14.298;2024-03-17T08:51:45;100131.06;;;9.59;55.62
86083;BME280;76693;50.220;14.298;2024-03-17T08:54:11;100133.88;;;9.81;56.05
86083;BME280;76693;50.220;14.298;2024-03-17T08:56:36;100130.50;;;9.14;55.89
86083;BME280;76693;50.220;14.298;2024-03-17T08:59:02;100129.81;;;8.84;57.52
86083;BME280;76693;50.220;14.298;2024-03-17T09:01:27;100129.78;;;8.67;57.79
86083;BME280;76693;50.220;14.298;2024-03-17T09:03:52;100126.09;;;8.95;56.21
86083;BME280;76693;50.220;14.298;2024-03-17T09:06:20;100108.78;;;9.95;52.77
86083;BME280;76693;50.220;14.298;2024-03-17T09:08:47;100119.25;;;9.46;54.05
86083;BME280;76693;50.220;14.298;2024-03-17T09:11:13;100111.56;;;9.30;54.99
86083;BME280;76693;50.220;14.298;2024-03-17T09:13:39;100102.94;;;9.11;55.48
86083;BME280;76693;50.220;14.298;2024-03-17T09:16:04;100110.16;;;8.37;56.77
86083;BME280;76693;50.220;14.298;2024-03-17T09:18:31;100101.03;;;8.58;57.49
86083;BME280;76693;50.220;14.298;2024-03-17T09:21:07;100107.94;;;8.59;56.37
86083;BME280;76693;50.220;14.298;2024-03-17T09:23:34;100099.09;;;8.87;56.13
86083;BME280;76693;50.220;14.298;2024-03-17T09:26:07;100101.06;;;9.09;55.71
86083;BME280;76693;50.220;14.298;2024-03-17T09:28:36;100103.97;;;9.49;54.57
86083;BME280;76693;50.220;14.298;2024-03-17T09:31:02;100100.97;;;9.23;54.31
86083;BME280;76693;50.220;14.298;2024-03-17T09:33:29;100096.63;;;9.92;53.69
86083;BME280;76693;50.220;14.298;2024-03-17T09:36:05;100115.59;;;9.41;53.76
86083;BME280;76693;50.220;14.298;2024-03-17T09:38:32;100093.47;;;8.78;56.72
86083;BME280;76693;50.220;14.298;2024-03-17T09:40:57;100101.59;;;8.85;56.65
86083;BME280;76693;50.220;14.298;2024-03-17T09:43:25;100084.84;;;9.44;56.27
86083;BME280;76693;50.220;14.298;2024-03-17T09:45:51;100099.56;;;8.96;53.33
86083;BME280;76693;50.220;14.298;2024-03-17T09:48:27;100089.91;;;9.60;51.90
86083;BME280;76693;50.220;14.298;2024-03-17T09:51:03;100083.50;;;9.52;53.81
86083;BME280;76693;50.220;14.298;2024-03-17T09:53:29;100085.72;;;9.44;53.83
86083;BME280;76693;50.220;14.298;2024-03-17T09:56:18;100081.13;;;10.10;53.53
86083;BME280;76693;50.220;14.298;2024-03-17T09:58:49;100077.94;;;9.79;53.69
86083;BME280;76693;50.220;14.298;2024-03-17T10:01:14;100077.91;;;9.43;52.95
86083;BME280;76693;50.220;14.298;2024-03-17T10:03:53;100078.75;;;9.25;53.27
86083;BME280;76693;50.220;14.298;2024-03-17T10:06:25;100079.31;;;9.54;52.50
86083;BME280;76693;50.220;14.298;2024-03-17T10:08:56;100075.09;;;9.38;51.94
86083;BME280;76693;50.220;14.298;2024-03-17T10:11:32;100067.59;;;9.43;51.36
86083;BME280;76693;50.220;14.298;2024-03-17T10:14:01;100065.22;;;9.12;51.34
86083;BME280;76693;50.220;14.298;2024-03-17T10:16:29;100068.41;;;8.57;52.59
86083;BME280;76693;50.220;14.298;2024-03-17T10:19:21;100082.31;;;8.77;53.51
86083;BME280;76693;50.220;14.298;2024-03-17T10:21:47;100081.59;;;8.47;51.50
86083;BME280;76693;50.220;14.298;2024-03-17T10:24:19;100070.50;;;8.48;51.00
86083;BME280;76693;50.220;14.298;2024-03-17T10:26:50;100068.72;;;8.63;50.17
86083;BME280;76693;50.220;14.298;2024-03-17T10:29:29;100065.25;;;8.79;50.62
86083;BME280;76693;50.220;14.298;2024-03-17T10:32:15;100068.84;;;8.99;50.22
86083;BME280;76693;50.220;14.298;2024-03-17T10:34:43;100068.69;;;8.96;51.10
86083;BME280;76693;50.220;14.298;2024-03-17T10:37:16;100063.78;;;9.00;51.15
86083;BME280;76693;50.220;14.298;2024-03-17T10:39:51;100067.97;;;8.98;50.84
86083;BME280;76693;50.220;14.298;2024-03-17T10:42:29;100055.78;;;9.12;50.47
86083;BME280;76693;50.220;14.298;2024-03-17T10:45:02;100064.84;;;8.88;50.74
86083;BME280;76693;50.220;14.298;2024-03-17T10:47:34;100062.69;;;9.13;51.11
86083;BME280;76693;50.220;14.298;2024-03-17T10:50:00;100067.28;;;8.68;51.84
86083;BME280;76693;50.220;14.298;2024-03-17T10:52:32;100063.44;;;9.45;50.95
86083;BME280;76693;50.220;14.298;2024-03-17T10:55:01;100058.25;;;9.81;47.87
86083;BME280;76693;50.220;14.298;2024-03-17T11:00:03;100058.00;;;10.30;48.37
86083;BME280;76693;50.220;14.298;2024-03-17T11:02:34;100057.41;;;10.17;46.90
86083;BME280;76693;50.220;14.298;2024-03-17T11:05:05;100052.66;;;10.64;44.68
86083;BME280;76693;50.220;14.298;2024-03-17T11:07:31;100038.88;;;10.63;45.53
86083;BME280;76693;50.220;14.298;2024-03-17T11:09:59;100056.13;;;10.45;44.85
86083;BME280;76693;50.220;14.298;2024-03-17T11:17:46;100059.16;;;10.18;46.42
86083;BME280;76693;50.220;14.298;2024-03-17T11:20:17;100052.06;;;10.50;46.18
86083;BME280;76693;50.220;14.298;2024-03-17T11:22:49;100048.84;;;9.99;45.44
86083;BME280;76693;50.220;14.298;2024-03-17T11:27:57;100038.19;;;11.29;43.08
86083;BME280;76693;50.220;14.298;2024-03-17T11:30:41;100029.53;;;11.27;45.01
86083;BME280;76693;50.220;14.298;2024-03-17T11:38:59;100027.09;;;9.94;47.29
86083;BME280;76693;50.220;14.298;2024-03-17T11:49:27;100007.47;;;9.96;44.27
86083;BME280;76693;50.220;14.298;2024-03-17T11:51:55;100007.56;;;10.75;42.65
86083;BME280;76693;50.220;14.298;2024-03-17T11:54:25;100008.19;;;10.69;44.57
86083;BME280;76693;50.220;14.298;2024-03-17T11:56:55;100002.91;;;10.66;43.59
86083;BME280;76693;50.220;14.298;2024-03-17T11:59:22;100000.22;;;10.24;42.91
86083;BME280;76693;50.220;14.298;2024-03-17T12:01:48;100001.81;;;11.02;41.40
86083;BME280;76693;50.220;14.298;2024-03-17T12:04:15;99991.91;;;11.77;40.93
86083;BME280;76693;50.220;14.298;2024-03-17T12:06:47;100001.84;;;11.03;41.36
86083;BME280;76693;50.220;14.298;2024-03-17T12:09:19;99989.78;;;11.66;41.87
86083;BME280;76693;50.220;14.298;2024-03-17T12:11:46;99997.63;;;11.47;41.51
86083;BME280;76693;50.220;14.298;2024-03-17T12:14:19;99988.94;;;10.42;42.84
86083;BME280;76693;50.220;14.298;2024-03-17T12:16:52;99989.47;;;10.54;43.68
86083;BME280;76693;50.220;14.298;2024-03-17T12:19:18;99988.59;;;9.97;43.65
86083;BME280;76693;50.220;14.298;2024-03-17T12:21:49;99990.25;;;10.14;44.99
86083;BME280;76693;50.220;14.298;2024-03-17T12:24:21;99987.41;;;10.08;44.18
86083;BME280;76693;50.220;14.298;2024-03-17T12:26:47;99981.94;;;10.02;43.32
86083;BME280;76693;50.220;14.298;2024-03-17T12:29:33;99990.25;;;10.14;43.01
86083;BME280;76693;50.220;14.298;2024-03-17T12:32:05;99980.59;;;9.91;43.84
86083;BME280;76693;50.220;14.298;2024-03-17T12:34:33;99976.69;;;9.99;44.09
86083;BME280;76693;50.220;14.298;2024-03-17T12:36:59;99970.75;;;10.39;43.78
86083;BME280;76693;50.220;14.298;2024-03-17T12:39:27;99965.13;;;10.68;43.42
86083;BME280;76693;50.220;14.298;2024-03-17T12:44:29;99967.38;;;10.03;43.45
86083;BME280;76693;50.220;14.298;2024-03-17T12:46:58;99953.22;;;10.12;43.77
86083;BME280;76693;50.220;14.298;2024-03-17T12:49:26;99940.81;;;11.69;39.38
86083;BME280;76693;50.220;14.298;2024-03-17T12:51:52;99947.00;;;13.76;37.22
86083;BME280;76693;50.220;14.298;2024-03-17T12:54:25;99940.06;;;13.46;37.57
86083;BME280;76693;50.220;14.298;2024-03-17T12:56:51;99953.81;;;12.17;38.61
86083;BME280;76693;50.220;14.298;2024-03-17T12:59:46;99943.94;;;14.49;35.08
86083;BME280;76693;50.220;14.298;2024-03-17T13:02:30;99946.06;;;14.97;34.33
86083;BME280;76693;50.220;14.298;2024-03-17T13:05:16;99945.47;;;15.45;33.08
86083;BME280;76693;50.220;14.298;2024-03-17T13:07:45;99934.00;;;15.37;32.87
86083;BME280;76693;50.220;14.298;2024-03-17T13:10:18;99938.47;;;14.08;34.68
86083;BME280;76693;50.220;14.298;2024-03-17T13:12:44;99928.19;;;16.29;33.10
86083;BME280;76693;50.220;14.298;2024-03-17T13:15:12;99928.31;;;15.91;31.65
86083;BME280;76693;50.220;14.298;2024-03-17T13:17:38;99923.97;;;15.14;32.63